createdAt,value
2023-03-12T00:01:33.484Z,10.70
2023-03-12T00:04:56.294Z,10.80
2023-03-12T00:08:18.399Z,11.00
2023-03-12T00:11:40.466Z,11.00
2023-03-12T00:15:02.562Z,11.00
2023-03-12T00:18:24.676Z,11.10
2023-03-12T00:21:46.806Z,11.00
2023-03-12T00:25:13.346Z,11.00
2023-03-12T00:28:35.905Z,10.90
2023-03-12T00:31:57.911Z,10.80
2023-03-12T00:35:19.959Z,10.70
2023-03-12T00:38:42.137Z,10.60
2023-03-12T00:42:04.386Z,10.40
2023-03-12T00:45:26.453Z,10.20
2023-03-12T00:48:48.491Z,10.20
2023-03-12T00:52:10.552Z,10.10
2023-03-12T00:55:32.628Z,10.00
2023-03-12T00:58:54.736Z,9.90
2023-03-12T01:02:16.733Z,9.80
2023-03-12T01:05:40.799Z,9.70
2023-03-12T01:09:05.336Z,9.60
2023-03-12T01:12:27.339Z,9.50
2023-03-12T01:15:49.327Z,9.40
2023-03-12T01:19:12.209Z,9.30
2023-03-12T01:22:35.620Z,9.10
2023-03-12T01:25:59.455Z,8.90
2023-03-12T01:29:21.568Z,8.70
2023-03-12T01:32:43.618Z,8.60
2023-03-12T01:36:15.321Z,8.40
2023-03-12T01:39:38.915Z,8.30
2023-03-12T01:43:22.645Z,8.20
2023-03-12T01:46:46.134Z,8.00
2023-03-12T01:50:15.337Z,7.90
2023-03-12T01:53:38.494Z,7.90
2023-03-12T01:57:02.385Z,7.80
2023-03-12T02:00:27.177Z,7.80
2023-03-12T02:03:53.666Z,7.70
2023-03-12T02:07:17.995Z,7.70
2023-03-12T02:10:40.090Z,7.70
2023-03-12T02:14:02.987Z,7.80
2023-03-12T02:17:25.216Z,7.80
2023-03-12T02:21:14.989Z,7.80
2023-03-12T02:24:58.444Z,7.70
2023-03-12T02:28:23.787Z,7.70
2023-03-12T02:31:52.100Z,7.60
2023-03-12T02:35:15.273Z,7.60
2023-03-12T02:38:42.090Z,7.60
2023-03-12T02:42:04.324Z,7.50
2023-03-12T02:45:26.683Z,7.40
2023-03-12T02:48:49.493Z,7.40
2023-03-12T02:52:11.513Z,7.30
2023-03-12T02:55:33.819Z,7.20
2023-03-12T02:58:56.126Z,7.40
2023-03-12T03:02:19.259Z,7.60
2023-03-12T03:05:41.249Z,7.70
2023-03-12T03:09:03.777Z,7.60
2023-03-12T03:12:25.889Z,7.60
2023-03-12T03:15:48.025Z,7.70
2023-03-12T03:19:11.401Z,7.60
2023-03-12T03:22:33.531Z,7.60
2023-03-12T03:25:55.962Z,7.50
2023-03-12T03:29:17.969Z,7.50
2023-03-12T03:32:40.036Z,7.40
2023-03-12T03:36:05.746Z,7.50
2023-03-12T03:39:30.971Z,7.70
2023-03-12T03:42:53.068Z,7.80
2023-03-12T03:46:16.162Z,7.80
2023-03-12T03:49:42.001Z,7.90
2023-03-12T03:53:06.762Z,7.90
2023-03-12T03:56:29.079Z,7.80
2023-03-12T03:59:52.840Z,7.60
2023-03-12T04:03:14.936Z,7.40
2023-03-12T04:06:37.794Z,7.10
2023-03-12T04:10:01.861Z,7.00
2023-03-12T04:13:24.128Z,6.90
2023-03-12T04:16:46.266Z,7.10
2023-03-12T04:20:09.568Z,7.20
2023-03-12T04:23:32.697Z,7.20
2023-03-12T04:26:55.017Z,7.30
2023-03-12T04:30:17.200Z,7.30
2023-03-12T04:33:41.007Z,7.20
2023-03-12T04:37:04.779Z,7.00
2023-03-12T04:40:26.960Z,6.80
2023-03-12T04:43:49.123Z,6.70
2023-03-12T04:47:12.372Z,6.70
2023-03-12T04:50:34.563Z,6.70
2023-03-12T04:53:56.765Z,6.70
2023-03-12T04:57:19.416Z,6.70
2023-03-12T05:00:41.995Z,6.70
2023-03-12T05:04:05.598Z,6.70
2023-03-12T05:07:27.633Z,6.60
2023-03-12T05:10:50.750Z,6.70
2023-03-12T05:14:13.125Z,6.80
2023-03-12T05:17:36.492Z,6.80
2023-03-12T05:21:02.405Z,6.80
2023-03-12T05:24:24.681Z,6.80
2023-03-12T05:27:46.745Z,6.70
2023-03-12T05:31:11.020Z,6.80
2023-03-12T05:34:34.046Z,6.90
2023-03-12T05:37:57.047Z,6.80
2023-03-12T05:41:27.926Z,6.80
2023-03-12T05:44:53.885Z,6.80
2023-03-12T05:48:17.870Z,6.70
2023-03-12T05:51:40.139Z,6.60
2023-03-12T05:55:03.692Z,6.60
2023-03-12T05:58:25.757Z,6.70
2023-03-12T06:01:48.181Z,6.80
2023-03-12T06:05:12.054Z,6.90
2023-03-12T06:08:35.340Z,7.10
2023-03-12T06:11:57.320Z,7.20
2023-03-12T06:15:19.509Z,7.30
2023-03-12T06:18:42.650Z,7.30
2023-03-12T06:22:05.183Z,7.40
2023-03-12T06:25:28.051Z,7.50
2023-03-12T06:28:51.469Z,7.80
2023-03-12T06:32:14.325Z,8.00
2023-03-12T06:35:36.517Z,8.20
2023-03-12T06:38:58.487Z,9.60
2023-03-12T06:42:20.874Z,11.80
2023-03-12T06:45:42.892Z,13.80
2023-03-12T06:49:05.028Z,15.00
2023-03-12T06:52:27.892Z,14.20
2023-03-12T06:55:51.164Z,13.40
2023-03-12T06:59:13.118Z,13.90
2023-03-12T07:02:35.106Z,15.20
2023-03-12T07:05:57.875Z,15.90
2023-03-12T07:09:20.380Z,16.00
2023-03-12T07:12:42.361Z,15.60
2023-03-12T07:16:04.716Z,15.10
2023-03-12T07:19:26.834Z,15.20
2023-03-12T07:22:49.987Z,15.70
2023-03-12T07:26:13.609Z,15.70
2023-03-12T07:29:35.939Z,15.40
2023-03-12T07:32:58.129Z,15.40
2023-03-12T07:36:20.322Z,15.90
2023-03-12T07:39:47.882Z,17.00
2023-03-12T07:43:12.704Z,17.30
2023-03-12T07:46:36.696Z,17.00
2023-03-12T07:49:58.868Z,17.20
2023-03-12T07:53:21.280Z,17.50
2023-03-12T07:56:43.389Z,17.90
2023-03-12T08:00:10.598Z,18.50
2023-03-12T08:03:35.576Z,18.30
2023-03-12T08:06:58.240Z,18.40
2023-03-12T08:10:21.724Z,18.60
2023-03-12T08:13:44.410Z,19.10
2023-03-12T08:17:06.390Z,18.50
2023-03-12T08:20:28.547Z,18.30
2023-03-12T08:23:50.676Z,18.40
2023-03-12T08:27:12.710Z,18.30
2023-03-12T08:30:34.807Z,18.80
2023-03-12T08:33:56.827Z,18.60
2023-03-12T08:37:18.936Z,17.30
2023-03-12T08:40:41.033Z,17.10
2023-03-12T08:44:03.214Z,18.40
2023-03-12T08:47:25.290Z,18.50
2023-03-12T08:50:47.262Z,19.30
2023-03-12T08:54:09.572Z,19.00
2023-03-12T08:57:32.015Z,18.20
2023-03-12T09:00:55.150Z,19.20
2023-03-12T09:04:19.055Z,19.20
2023-03-12T09:07:41.770Z,18.80
2023-03-12T09:11:03.956Z,19.10
2023-03-12T09:15:01.565Z,20.30
2023-03-12T09:18:08.595Z,20.40
2023-03-12T09:21:30.902Z,20.50
2023-03-12T09:24:52.984Z,20.40
2023-03-12T09:28:16.630Z,19.50
2023-03-12T09:31:38.853Z,19.60
2023-03-12T09:35:00.805Z,20.00
2023-03-12T09:38:22.794Z,19.30
2023-03-12T09:41:47.841Z,18.80
2023-03-12T09:45:18.671Z,19.50
2023-03-12T09:48:41.567Z,19.90
2023-03-12T09:52:17.393Z,20.10
2023-03-12T09:55:42.347Z,19.30
2023-03-12T09:59:04.390Z,19.30
2023-03-12T10:02:43.431Z,19.30
2023-03-12T10:06:21.629Z,19.90
2023-03-12T10:10:03.443Z,19.60
2023-03-12T10:13:34.098Z,19.60
2023-03-12T10:17:15.024Z,18.40
2023-03-12T10:20:54.200Z,18.80
2023-03-12T10:25:10.525Z,19.10
2023-03-12T10:28:44.818Z,19.50
2023-03-12T10:32:22.042Z,19.20
2023-03-12T10:35:44.263Z,19.80
2023-03-12T10:39:18.925Z,19.70
2023-03-12T10:42:40.926Z,20.20
2023-03-12T10:46:26.555Z,19.90
2023-03-12T10:49:51.162Z,19.50
2023-03-12T10:53:30.023Z,19.80
2023-03-12T10:56:52.471Z,18.90
2023-03-12T11:00:26.632Z,18.10
2023-03-12T11:03:51.129Z,17.80
2023-03-12T11:07:17.929Z,17.80
2023-03-12T11:10:46.925Z,18.30
2023-03-12T11:14:30.522Z,18.30
2023-03-12T11:17:52.902Z,18.60
2023-03-12T11:21:16.764Z,18.40
2023-03-12T11:24:57.768Z,18.30
2023-03-12T11:28:25.268Z,18.00
2023-03-12T11:32:23.399Z,18.10
2023-03-12T11:36:08.681Z,17.60
2023-03-12T11:39:49.396Z,17.70
2023-03-12T11:43:45.464Z,17.80
2023-03-12T11:47:10.631Z,17.90
2023-03-12T11:50:41.240Z,17.50
2023-03-12T11:54:18.553Z,17.40
2023-03-12T11:58:17.447Z,17.30
2023-03-12T12:01:51.488Z,17.30
2023-03-12T12:05:44.284Z,17.40
2023-03-12T12:09:14.863Z,17.80
2023-03-12T12:12:55.130Z,17.70
2023-03-12T12:16:29.604Z,17.70
2023-03-12T12:20:12.250Z,17.90
2023-03-12T12:24:05.206Z,18.00
2023-03-12T12:27:33.136Z,17.60
2023-03-12T12:31:24.351Z,17.60
2023-03-12T12:34:59.095Z,17.40
2023-03-12T12:38:30.331Z,17.10
2023-03-12T12:41:58.433Z,16.90
2023-03-12T12:45:22.561Z,17.10
2023-03-12T12:48:55.572Z,16.80
2023-03-12T12:52:22.988Z,17.10
2023-03-12T12:55:55.626Z,17.30
2023-03-12T12:59:21.512Z,17.50
2023-03-12T13:02:47.933Z,17.80
2023-03-12T13:06:11.467Z,17.70
2023-03-12T13:09:53.488Z,17.40
2023-03-12T13:13:25.564Z,17.10
2023-03-12T13:16:49.382Z,17.30
2023-03-12T13:20:18.150Z,17.70
2023-03-12T13:24:08.999Z,17.80
2023-03-12T13:27:37.487Z,17.70
2023-03-12T13:31:01.082Z,17.60
2023-03-12T13:34:26.899Z,17.10
2023-03-12T13:37:52.630Z,16.80
2023-03-12T13:41:37.436Z,16.80
2023-03-12T13:45:31.798Z,17.10
2023-03-12T13:49:00.902Z,17.10
2023-03-12T13:52:37.592Z,17.10
2023-03-12T13:56:12.947Z,16.90
2023-03-12T13:59:35.002Z,17.20
2023-03-12T14:03:04.720Z,17.60
2023-03-12T14:06:30.374Z,17.30
2023-03-12T14:09:52.359Z,16.90
2023-03-12T14:13:34.346Z,16.50
2023-03-12T14:16:59.725Z,16.50
2023-03-12T14:20:23.245Z,16.70
2023-03-12T14:23:56.106Z,16.70
2023-03-12T14:27:24.072Z,16.60
2023-03-12T14:31:10.740Z,16.70
2023-03-12T14:34:41.457Z,16.40
2023-03-12T14:38:25.191Z,16.20
2023-03-12T14:41:54.183Z,16.20
2023-03-12T14:45:22.981Z,16.40
2023-03-12T14:48:48.369Z,16.40
2023-03-12T14:52:14.724Z,16.20
2023-03-12T14:55:36.690Z,16.10
2023-03-12T14:59:01.724Z,16.00
2023-03-12T15:02:24.198Z,16.00
2023-03-12T15:05:48.170Z,16.00
2023-03-12T15:09:22.196Z,15.80
2023-03-12T15:12:46.055Z,15.70
2023-03-12T15:16:08.501Z,15.70
2023-03-12T15:19:40.294Z,15.50
2023-03-12T15:23:04.426Z,15.50
2023-03-12T15:26:30.567Z,15.40
2023-03-12T15:29:53.115Z,15.30
2023-03-12T15:33:18.803Z,15.30
2023-03-12T15:36:49.293Z,15.30
2023-03-12T15:40:22.383Z,15.20
2023-03-12T15:43:47.913Z,15.00
2023-03-12T15:47:23.204Z,15.00
2023-03-12T15:50:45.843Z,14.90
2023-03-12T15:54:13.595Z,14.90
2023-03-12T15:57:51.105Z,14.90
2023-03-12T16:01:18.088Z,14.80
2023-03-12T16:04:40.108Z,14.80
2023-03-12T16:08:21.599Z,14.70
2023-03-12T16:11:43.948Z,14.70
2023-03-12T16:15:06.867Z,14.60
2023-03-12T16:18:28.965Z,14.50
2023-03-12T16:21:51.185Z,14.50
2023-03-12T16:25:13.558Z,14.50
2023-03-12T16:28:36.496Z,14.40
2023-03-12T16:31:59.202Z,14.30
2023-03-12T16:35:22.109Z,14.20
2023-03-12T16:38:45.585Z,14.10
2023-03-12T16:42:18.636Z,14.10
2023-03-12T16:45:43.902Z,13.90
2023-03-12T16:49:06.092Z,13.80
2023-03-12T16:52:28.686Z,13.80
2023-03-12T16:55:59.881Z,13.60
2023-03-12T16:59:27.924Z,13.50
2023-03-12T17:02:52.601Z,13.40
2023-03-12T17:06:21.362Z,13.20
2023-03-12T17:09:43.319Z,12.90
2023-03-12T17:13:05.692Z,12.70
2023-03-12T17:16:28.077Z,12.60
2023-03-12T17:19:52.043Z,12.40
2023-03-12T17:23:14.286Z,12.30
2023-03-12T17:26:36.359Z,12.10
2023-03-12T17:29:58.399Z,12.00
2023-03-12T17:33:20.455Z,11.90
2023-03-12T17:36:42.427Z,11.80
2023-03-12T17:40:09.007Z,11.70
2023-03-12T17:43:31.014Z,11.60
2023-03-12T17:46:59.721Z,11.50
2023-03-12T17:50:22.010Z,11.50
2023-03-12T17:53:44.208Z,11.40
2023-03-12T17:57:06.162Z,11.30
2023-03-12T18:00:28.128Z,11.20
2023-03-12T18:03:51.305Z,11.10
2023-03-12T18:07:13.464Z,11.10
2023-03-12T18:10:37.342Z,11.10
2023-03-12T18:13:59.523Z,11.20
2023-03-12T18:17:21.666Z,11.10
2023-03-12T18:20:44.413Z,10.90
2023-03-12T18:24:14.116Z,10.80
2023-03-12T18:27:36.931Z,10.60
2023-03-12T18:30:59.026Z,10.50
2023-03-12T18:34:23.387Z,10.50
2023-03-12T18:37:46.084Z,10.50
2023-03-12T18:41:10.641Z,10.40
2023-03-12T18:44:32.619Z,10.40
2023-03-12T18:47:54.587Z,10.20
2023-03-12T18:51:16.575Z,10.10
2023-03-12T18:54:39.196Z,10.10
2023-03-12T18:58:01.248Z,10.00
2023-03-12T19:01:23.356Z,9.90
2023-03-12T19:04:45.495Z,9.90
2023-03-12T19:08:07.498Z,9.80
2023-03-12T19:11:29.467Z,9.70
2023-03-12T19:14:51.557Z,9.70
2023-03-12T19:18:13.550Z,9.80
2023-03-12T19:21:35.520Z,9.90
2023-03-12T19:24:57.448Z,9.90
2023-03-12T19:28:19.501Z,9.80
2023-03-12T19:31:41.552Z,9.60
2023-03-12T19:35:03.611Z,9.50
2023-03-12T19:38:26.383Z,9.30
2023-03-12T19:41:48.614Z,9.10
2023-03-12T19:45:11.314Z,9.10
2023-03-12T19:48:33.423Z,9.00
2023-03-12T19:51:55.360Z,9.00
2023-03-12T19:55:17.413Z,9.00
2023-03-12T19:58:39.427Z,8.90
2023-03-12T20:02:01.646Z,8.90
2023-03-12T20:05:23.788Z,8.90
2023-03-12T20:08:45.769Z,9.00
2023-03-12T20:12:08.219Z,8.90
2023-03-12T20:15:30.494Z,8.80
2023-03-12T20:18:52.549Z,8.70
2023-03-12T20:22:14.586Z,8.70
2023-03-12T20:25:40.550Z,8.60
2023-03-12T20:29:03.620Z,8.50
2023-03-12T20:32:25.854Z,8.40
2023-03-12T20:35:50.244Z,8.20
2023-03-12T20:39:13.202Z,8.10
2023-03-12T20:42:35.348Z,8.00
2023-03-12T20:45:57.372Z,7.90
2023-03-12T20:49:19.330Z,7.90
2023-03-12T20:52:42.663Z,7.80
2023-03-12T20:56:07.009Z,7.90
2023-03-12T20:59:29.163Z,7.80
2023-03-12T21:02:51.247Z,8.10
2023-03-12T21:06:13.279Z,8.30
2023-03-12T21:09:35.509Z,8.50
2023-03-12T21:12:57.889Z,8.40
2023-03-12T21:16:20.233Z,8.30
2023-03-12T21:19:42.590Z,8.10
2023-03-12T21:23:05.904Z,8.00
2023-03-12T21:26:28.043Z,7.90
2023-03-12T21:29:50.460Z,7.90
2023-03-12T21:33:12.497Z,7.90
2023-03-12T21:36:34.679Z,7.90
2023-03-12T21:40:01.222Z,7.80
2023-03-12T21:43:23.279Z,7.80
2023-03-12T21:46:45.334Z,7.70
2023-03-12T21:50:08.640Z,7.60
2023-03-12T21:53:30.843Z,7.50
2023-03-12T21:56:52.802Z,7.30
2023-03-12T22:00:15.151Z,7.30
2023-03-12T22:03:38.248Z,7.20
2023-03-12T22:07:00.357Z,7.20
2023-03-12T22:10:22.536Z,7.10
2023-03-12T22:13:45.005Z,7.00
2023-03-12T22:17:07.198Z,6.90
2023-03-12T22:20:29.193Z,6.90
2023-03-12T22:23:53.499Z,6.90
2023-03-12T22:27:15.463Z,6.90
2023-03-12T22:30:37.461Z,6.70
2023-03-12T22:33:59.558Z,6.60
2023-03-12T22:37:21.671Z,6.60
2023-03-12T22:40:43.769Z,6.50
2023-03-12T22:44:07.449Z,6.50
2023-03-12T22:47:29.581Z,6.40
2023-03-12T22:50:55.116Z,6.30
2023-03-12T22:54:17.176Z,6.20
2023-03-12T22:57:39.396Z,6.10
2023-03-12T23:01:05.114Z,6.10
2023-03-12T23:04:27.161Z,6.00
2023-03-12T23:07:49.422Z,6.00
2023-03-12T23:11:12.032Z,5.90
2023-03-12T23:14:34.525Z,5.90
2023-03-12T23:17:56.528Z,5.80
2023-03-12T23:21:22.040Z,5.80
2023-03-12T23:24:44.111Z,5.70
2023-03-12T23:28:06.162Z,5.80
2023-03-12T23:31:29.384Z,5.70
2023-03-12T23:34:51.421Z,5.70
2023-03-12T23:38:13.577Z,5.70
2023-03-12T23:41:36.182Z,5.70
2023-03-12T23:44:58.328Z,5.70
2023-03-12T23:48:20.266Z,5.60
2023-03-12T23:51:42.345Z,5.50
2023-03-12T23:55:04.650Z,5.50
2023-03-12T23:58:27.163Z,5.40
